Time;durP1;ratioP1;P1;durP2;ratioP2;P2;SDS_P1;SDS_P2;PMS_P1;PMS_P2;Temp;Humidity;BMP_temperature;BMP_pressure;BME280_temperature;BME280_humidity;BME280_pressure;Samples;Min_cycle;Max_cycle;Signal;HPM_P1;HPM_P2
2022/07/11 00:00:04;;;;;;;;;;;25.00;34.70;;;;;;1579635;74;768;-66
2022/07/11 00:02:06;;;;;;;;;;;25.00;34.60;;;;;;1570244;74;1931;-67
2022/07/11 00:04:08;;;;;;;;;;;25.00;34.60;;;;;;1574829;74;1196;-67
2022/07/11 00:06:10;;;;;;;;;;;25.00;34.50;;;;;;1575805;74;779;-68
2022/07/11 00:08:12;;;;;;;;;;;25.00;34.70;;;;;;1575323;74;1575;-69
2022/07/11 00:10:14;;;;;;;;;;;25.00;34.70;;;;;;1571115;74;689;-67
2022/07/11 00:12:16;;;;;;;;;;;25.00;34.70;;;;;;1573703;74;714;-67
2022/07/11 00:14:18;;;;;;;;;;;25.00;34.50;;;;;;1575419;74;1169;-67
2022/07/11 00:16:20;;;;;;;;;;;25.00;34.60;;;;;;1576869;74;694;-68
2022/07/11 00:18:23;;;;;;;;;;;25.00;34.70;;;;;;1581831;74;1116;-68
2022/07/11 00:20:25;;;;;;;;;;;25.00;34.80;;;;;;1581639;74;733;-67
2022/07/11 00:22:27;;;;;;;;;;;25.00;34.80;;;;;;1573490;74;1927;-67
2022/07/11 00:24:29;;;;;;;;;;;25.00;34.70;;;;;;1583060;74;1185;-71
2022/07/11 00:26:31;;;;;;;;;;;25.00;34.70;;;;;;1567267;74;880;-68
2022/07/11 00:28:33;;;;;;;;;;;25.00;34.80;;;;;;1580506;74;769;-70
2022/07/11 00:30:34;;;;;;;;;;;25.00;34.80;;;;;;1581271;74;536;-69
2022/07/11 00:32:36;;;;;;;;;;;25.00;34.80;;;;;;1575089;74;799;-70
2022/07/11 00:34:38;;;;;;;;;;;25.00;34.60;;;;;;1571836;74;1140;-67
2022/07/11 00:36:40;;;;;;;;;;;25.00;34.60;;;;;;1580892;74;1458;-68
2022/07/11 00:38:42;;;;;;;;;;;25.00;34.60;;;;;;1570479;74;751;-68
2022/07/11 00:40:44;;;;;;;;;;;25.00;34.60;;;;;;1578039;74;657;-71
2022/07/11 00:42:46;;;;;;;;;;;25.00;34.50;;;;;;1579225;74;1931;-68
2022/07/11 00:44:48;;;;;;;;;;;25.00;34.40;;;;;;1580324;74;1132;-67
2022/07/11 00:46:49;;;;;;;;;;;25.00;34.50;;;;;;1581042;74;783;-68
2022/07/11 00:48:52;;;;;;;;;;;24.90;34.50;;;;;;1576813;74;786;-67
2022/07/11 00:50:53;;;;;;;;;;;25.00;34.30;;;;;;1579712;74;1432;-67
2022/07/11 00:52:55;;;;;;;;;;;25.00;34.40;;;;;;1580269;74;747;-69
2022/07/11 00:54:57;;;;;;;;;;;25.00;34.30;;;;;;1573520;74;1176;-70
2022/07/11 00:56:59;;;;;;;;;;;25.00;34.40;;;;;;1579467;74;767;-68
2022/07/11 00:59:01;;;;;;;;;;;25.00;34.40;;;;;;1566736;74;779;-68
2022/07/11 01:01:03;;;;;;;;;;;25.00;34.30;;;;;;1569814;74;658;-67
2022/07/11 01:03:05;;;;;;;;;;;25.00;34.40;;;;;;1568648;74;1935;-68
2022/07/11 01:05:07;;;;;;;;;;;25.00;34.40;;;;;;1573807;74;1477;-69
2022/07/11 01:07:09;;;;;;;;;;;25.00;34.40;;;;;;1573674;74;783;-69
2022/07/11 01:09:11;;;;;;;;;;;25.00;34.40;;;;;;1572396;74;766;-66
2022/07/11 01:11:15;;;;;;;;;;;25.00;34.40;;;;;;1578876;74;799;-67
2022/07/11 01:13:16;;;;;;;;;;;25.00;34.30;;;;;;1578292;74;1492;-67
2022/07/11 01:15:18;;;;;;;;;;;25.00;34.30;;;;;;1569511;71;2072;-66
2022/07/11 01:17:20;;;;;;;;;;;25.00;34.40;;;;;;1554894;76;716;-66
2022/07/11 01:19:22;;;;;;;;;;;25.00;34.40;;;;;;1548363;75;1568;-69
2022/07/11 01:21:25;;;;;;;;;;;25.00;34.40;;;;;;1539746;75;732;-66
2022/07/11 01:23:27;;;;;;;;;;;25.00;34.60;;;;;;1555035;75;1923;-65
2022/07/11 01:25:34;;;;;;;;;;;25.00;34.50;;;;;;1555067;75;1238;-65
2022/07/11 01:27:36;;;;;;;;;;;25.00;34.30;;;;;;1539621;75;849;-66
2022/07/11 01:29:38;;;;;;;;;;;25.00;34.60;;;;;;1552771;75;692;-66
2022/07/11 01:31:43;;;;;;;;;;;25.00;34.60;;;;;;1515667;76;1354;-66
2022/07/11 01:33:44;;;;;;;;;;;25.00;34.60;;;;;;1530516;76;1605;-66
2022/07/11 01:35:46;;;;;;;;;;;25.00;34.50;;;;;;1529459;76;1135;-66
2022/07/11 01:37:48;;;;;;;;;;;25.00;34.50;;;;;;1528679;76;777;-66
2022/07/11 01:39:50;;;;;;;;;;;25.00;34.50;;;;;;1537812;76;772;-66
2022/07/11 01:41:52;;;;;;;;;;;25.00;34.50;;;;;;1527919;76;720;-68
2022/07/11 01:43:54;;;;;;;;;;;25.00;34.70;;;;;;1526711;76;1922;-69
2022/07/11 01:45:56;;;;;;;;;;;25.00;34.50;;;;;;1537464;76;1084;-66
2022/07/11 01:47:57;;;;;;;;;;;25.00;34.50;;;;;;1528733;76;1547;-66
2022/07/11 01:49:59;;;;;;;;;;;25.00;34.60;;;;;;1529117;76;796;-66
2022/07/11 01:52:01;;;;;;;;;;;25.00;34.50;;;;;;1531163;76;726;-67
2022/07/11 01:54:03;;;;;;;;;;;25.00;34.50;;;;;;1541469;76;748;-66
2022/07/11 01:56:05;;;;;;;;;;;25.00;34.40;;;;;;1542813;76;1135;-69
2022/07/11 01:58:07;;;;;;;;;;;25.00;34.40;;;;;;1530560;75;735;-67
2022/07/11 02:00:11;;;;;;;;;;;25.00;34.50;;;;;;1527601;76;740;-69
2022/07/11 02:02:13;;;;;;;;;;;25.00;34.40;;;;;;1517995;76;1915;-67
2022/07/11 02:04:15;;;;;;;;;;;25.00;34.60;;;;;;1535060;76;754;-66
2022/07/11 02:06:17;;;;;;;;;;;25.00;34.60;;;;;;1539924;76;718;-65
2022/07/11 02:08:19;;;;;;;;;;;25.00;34.60;;;;;;1541760;76;836;-66
2022/07/11 02:10:20;;;;;;;;;;;25.00;34.70;;;;;;1536016;76;789;-65
2022/07/11 02:12:23;;;;;;;;;;;25.00;34.70;;;;;;1534312;76;706;-68
2022/07/11 02:14:25;;;;;;;;;;;25.00;34.60;;;;;;1536010;76;1157;-65
2022/07/11 02:16:27;;;;;;;;;;;25.00;34.70;;;;;;1529376;76;1511;-67
2022/07/11 02:18:29;;;;;;;;;;;25.00;34.60;;;;;;1525301;76;756;-68
2022/07/11 02:20:31;;;;;;;;;;;25.00;34.60;;;;;;1522405;76;836;-69
2022/07/11 02:22:34;;;;;;;;;;;25.00;34.50;;;;;;1520803;76;1940;-67
2022/07/11 02:24:36;;;;;;;;;;;25.00;34.50;;;;;;1529382;76;1180;-67
2022/07/11 02:26:37;;;;;;;;;;;25.00;34.60;;;;;;1539908;76;690;-68
2022/07/11 02:28:40;;;;;;;;;;;25.00;34.50;;;;;;1535927;76;827;-67
2022/07/11 02:30:42;;;;;;;;;;;25.00;34.40;;;;;;1525177;76;743;-69
2022/07/11 02:32:44;;;;;;;;;;;25.00;34.60;;;;;;1534348;76;815;-70
2022/07/11 02:34:46;;;;;;;;;;;25.00;34.60;;;;;;1529630;75;1194;-68
2022/07/11 02:36:48;;;;;;;;;;;25.00;34.60;;;;;;1536658;76;801;-66
2022/07/11 02:38:50;;;;;;;;;;;25.00;34.60;;;;;;1515996;76;799;-67
2022/07/11 02:40:52;;;;;;;;;;;25.00;34.40;;;;;;1544271;76;785;-67
2022/07/11 02:42:55;;;;;;;;;;;25.00;34.50;;;;;;1526435;76;1948;-67
2022/07/11 02:44:56;;;;;;;;;;;25.00;34.50;;;;;;1525726;76;1137;-68
2022/07/11 02:46:58;;;;;;;;;;;25.00;34.40;;;;;;1527064;76;793;-62
2022/07/11 02:49:00;;;;;;;;;;;25.00;34.40;;;;;;1536719;76;738;-65
2022/07/11 02:51:02;;;;;;;;;;;25.00;34.40;;;;;;1525433;76;788;-63
2022/07/11 02:53:04;;;;;;;;;;;25.00;34.40;;;;;;1516642;76;804;-65
2022/07/11 02:55:07;;;;;;;;;;;25.00;34.40;;;;;;1525466;76;1144;-65
2022/07/11 02:57:09;;;;;;;;;;;25.00;34.40;;;;;;1531247;76;1546;-65
2022/07/11 02:59:10;;;;;;;;;;;25.00;34.50;;;;;;1510895;76;774;-65
2022/07/11 03:01:12;;;;;;;;;;;25.00;34.50;;;;;;1527177;76;821;-65
2022/07/11 03:03:14;;;;;;;;;;;25.00;34.50;;;;;;1539917;76;1920;-67
2022/07/11 03:05:16;;;;;;;;;;;25.00;34.60;;;;;;1519218;76;1154;-64
2022/07/11 03:07:18;;;;;;;;;;;25.10;34.60;;;;;;1537819;76;739;-65
2022/07/11 03:09:20;;;;;;;;;;;25.10;34.60;;;;;;1539330;76;717;-64
2022/07/11 03:11:22;;;;;;;;;;;25.10;34.60;;;;;;1538418;76;1529;-64
2022/07/11 03:13:23;;;;;;;;;;;25.00;34.70;;;;;;1517442;76;733;-64
2022/07/11 03:15:25;;;;;;;;;;;25.00;34.60;;;;;;1528953;76;1153;-66
2022/07/11 03:17:27;;;;;;;;;;;25.10;34.70;;;;;;1537453;76;796;-60
2022/07/11 03:19:29;;;;;;;;;;;25.00;34.60;;;;;;1536947;76;785;-63
2022/07/11 03:21:31;;;;;;;;;;;25.00;34.70;;;;;;1536906;76;797;-65
2022/07/11 03:23:33;;;;;;;;;;;25.00;34.70;;;;;;1537161;76;1944;-64
2022/07/11 03:25:35;;;;;;;;;;;25.00;34.70;;;;;;1541680;76;1561;-64
2022/07/11 03:27:37;;;;;;;;;;;25.10;34.60;;;;;;1529652;76;600;-65
2022/07/11 03:29:38;;;;;;;;;;;25.10;34.70;;;;;;1524612;76;706;-66
2022/07/11 03:31:40;;;;;;;;;;;25.10;34.70;;;;;;1552836;76;704;-60
2022/07/11 03:33:42;;;;;;;;;;;25.00;34.70;;;;;;1520515;76;757;-64
2022/07/11 03:35:44;;;;;;;;;;;25.10;34.50;;;;;;1543130;76;1187;-64
2022/07/11 03:37:46;;;;;;;;;;;25.00;34.70;;;;;;1548217;76;758;-63
2022/07/11 03:39:48;;;;;;;;;;;25.10;34.50;;;;;;1522331;76;1611;-67
2022/07/11 03:41:50;;;;;;;;;;;25.00;34.40;;;;;;1527840;76;701;-64
2022/07/11 03:43:52;;;;;;;;;;;25.10;34.50;;;;;;1524604;76;1917;-64
2022/07/11 03:45:54;;;;;;;;;;;25.10;34.50;;;;;;1521822;76;1163;-66
2022/07/11 03:47:55;;;;;;;;;;;25.00;34.40;;;;;;1528013;76;830;-63
2022/07/11 03:49:57;;;;;;;;;;;25.10;34.30;;;;;;1524535;76;781;-63
2022/07/11 03:51:59;;;;;;;;;;;25.10;34.20;;;;;;1545187;76;828;-63
2022/07/11 03:54:01;;;;;;;;;;;25.00;34.20;;;;;;1536618;76;1538;-63
2022/07/11 03:56:03;;;;;;;;;;;25.00;34.30;;;;;;1536701;76;1099;-62
2022/07/11 03:58:05;;;;;;;;;;;25.00;34.20;;;;;;1538061;76;742;-62
2022/07/11 04:00:08;;;;;;;;;;;25.10;34.30;;;;;;1529939;76;773;-63
2022/07/11 04:02:10;;;;;;;;;;;25.10;34.20;;;;;;1548844;76;753;-62
2022/07/11 04:04:12;;;;;;;;;;;25.00;34.00;;;;;;1549343;76;1937;-64
2022/07/11 04:06:14;;;;;;;;;;;25.00;34.00;;;;;;1537358;76;1167;-63
2022/07/11 04:08:16;;;;;;;;;;;25.00;34.00;;;;;;1530117;76;1678;-62
2022/07/11 04:10:18;;;;;;;;;;;25.00;34.00;;;;;;1539552;76;703;-62
2022/07/11 04:12:20;;;;;;;;;;;25.00;34.20;;;;;;1537575;76;741;-62
2022/07/11 04:14:22;;;;;;;;;;;25.00;34.20;;;;;;1538972;76;1155;-67
2022/07/11 04:16:24;;;;;;;;;;;25.00;34.20;;;;;;1531670;76;797;-64
2022/07/11 04:18:26;;;;;;;;;;;25.00;34.10;;;;;;1531871;76;599;-62
2022/07/11 04:20:28;;;;;;;;;;;25.00;34.20;;;;;;1546109;76;714;-64
2022/07/11 04:22:30;;;;;;;;;;;25.00;34.20;;;;;;1531479;76;1539;-64
2022/07/11 04:24:32;;;;;;;;;;;25.00;34.20;;;;;;1521270;76;1912;-65
2022/07/11 04:26:33;;;;;;;;;;;25.00;34.20;;;;;;1533332;76;763;-66
2022/07/11 04:28:35;;;;;;;;;;;25.00;34.20;;;;;;1525578;76;788;-67
2022/07/11 04:30:37;;;;;;;;;;;25.00;34.10;;;;;;1542676;76;713;-66
2022/07/11 04:32:39;;;;;;;;;;;25.00;34.10;;;;;;1543198;76;808;-66
2022/07/11 04:34:41;;;;;;;;;;;25.00;34.10;;;;;;1533407;76;1223;-66
2022/07/11 04:36:43;;;;;;;;;;;25.00;34.10;;;;;;1524374;76;1711;-65
2022/07/11 04:38:45;;;;;;;;;;;25.00;34.10;;;;;;1524128;76;771;-65
2022/07/11 04:40:48;;;;;;;;;;;25.00;34.10;;;;;;1533523;76;880;-65
2022/07/11 04:42:50;;;;;;;;;;;25.00;34.10;;;;;;1529520;76;751;-64
2022/07/11 04:44:52;;;;;;;;;;;25.00;34.00;;;;;;1539355;76;1924;-65
2022/07/11 04:46:55;;;;;;;;;;;25.00;34.20;;;;;;1530765;76;729;-65
2022/07/11 04:48:57;;;;;;;;;;;25.00;34.10;;;;;;1524364;76;742;-68
2022/07/11 04:50:59;;;;;;;;;;;25.00;34.20;;;;;;1515328;76;1508;-65
2022/07/11 04:53:00;;;;;;;;;;;25.10;34.00;;;;;;1518196;76;770;-65
2022/07/11 04:55:02;;;;;;;;;;;25.00;34.00;;;;;;1525879;76;1164;-65
2022/07/11 04:57:05;;;;;;;;;;;25.00;34.10;;;;;;1516975;76;704;-66
2022/07/11 04:59:07;;;;;;;;;;;25.00;34.10;;;;;;1523975;76;904;-67
2022/07/11 05:01:09;;;;;;;;;;;25.00;34.10;;;;;;1524117;76;720;-65
2022/07/11 05:03:11;;;;;;;;;;;25.00;34.10;;;;;;1514780;76;1918;-66
2022/07/11 05:05:13;;;;;;;;;;;25.10;34.00;;;;;;1517392;76;1679;-64
2022/07/11 05:07:14;;;;;;;;;;;25.00;34.00;;;;;;1529871;76;724;-66
2022/07/11 05:09:16;;;;;;;;;;;25.00;34.10;;;;;;1527425;76;821;-69
2022/07/11 05:11:18;;;;;;;;;;;25.00;34.00;;;;;;1546065;76;731;-66
2022/07/11 05:13:20;;;;;;;;;;;25.10;34.00;;;;;;1537488;76;740;-65
2022/07/11 05:15:22;;;;;;;;;;;25.00;33.90;;;;;;1517250;76;1150;-65
2022/07/11 05:17:25;;;;;;;;;;;25.00;33.80;;;;;;1536634;76;777;-66
2022/07/11 05:19:27;;;;;;;;;;;25.10;33.70;;;;;;1536738;76;726;-66
2022/07/11 05:21:29;;;;;;;;;;;25.00;33.50;;;;;;1546898;76;747;-64
2022/07/11 05:23:31;;;;;;;;;;;25.00;33.50;;;;;;1520952;76;1930;-67
2022/07/11 05:25:32;;;;;;;;;;;25.00;33.60;;;;;;1535448;76;1183;-64
2022/07/11 05:27:34;;;;;;;;;;;24.90;33.60;;;;;;1521353;76;782;-67
2022/07/11 05:29:36;;;;;;;;;;;24.90;33.60;;;;;;1532491;76;735;-64
2022/07/11 05:31:39;;;;;;;;;;;24.90;33.70;;;;;;1524593;76;738;-71
2022/07/11 05:33:41;;;;;;;;;;;24.90;33.70;;;;;;1531280;76;818;-64
2022/07/11 05:35:43;;;;;;;;;;;24.90;33.90;;;;;;1529152;76;1192;-66
2022/07/11 05:37:45;;;;;;;;;;;25.00;33.90;;;;;;1536800;76;726;-66
2022/07/11 05:39:47;;;;;;;;;;;25.00;33.90;;;;;;1525351;76;797;-69
2022/07/11 05:41:51;;;;;;;;;;;25.00;33.60;;;;;;1524044;76;764;-68
2022/07/11 05:43:52;;;;;;;;;;;25.00;33.70;;;;;;1526327;76;1932;-66
2022/07/11 05:45:54;;;;;;;;;;;24.90;33.80;;;;;;1532786;76;1138;-67
2022/07/11 05:47:56;;;;;;;;;;;24.90;33.80;;;;;;1535072;76;792;-67
2022/07/11 05:49:58;;;;;;;;;;;24.90;33.90;;;;;;1532311;76;689;-67
2022/07/11 05:52:00;;;;;;;;;;;24.90;33.80;;;;;;1529803;76;746;-68
2022/07/11 05:54:01;;;;;;;;;;;24.80;33.70;;;;;;1524017;76;800;-67
2022/07/11 05:56:03;;;;;;;;;;;24.80;33.70;;;;;;1541031;76;1109;-67
2022/07/11 05:58:05;;;;;;;;;;;24.80;33.70;;;;;;1537538;76;793;-64
2022/07/11 06:00:08;;;;;;;;;;;24.80;33.60;;;;;;1535159;76;857;-66
2022/07/11 06:02:09;;;;;;;;;;;24.80;33.60;;;;;;1535023;76;734;-67
2022/07/11 06:04:12;;;;;;;;;;;24.80;33.60;;;;;;1537507;76;1928;-67
2022/07/11 06:06:14;;;;;;;;;;;24.80;33.60;;;;;;1538846;76;1082;-67
2022/07/11 06:10:36;;;;;;;;;;;24.70;33.50;;;;;;1535288;76;1644;-69
2022/07/11 06:12:37;;;;;;;;;;;24.70;33.60;;;;;;1540733;76;868;-69
2022/07/11 06:14:39;;;;;;;;;;;24.70;33.60;;;;;;1533134;76;1181;-67
2022/07/11 06:16:41;;;;;;;;;;;24.70;33.60;;;;;;1529543;76;756;-67
2022/07/11 06:18:43;;;;;;;;;;;24.70;33.50;;;;;;1528142;76;800;-66
2022/07/11 06:20:45;;;;;;;;;;;24.70;33.50;;;;;;1538677;76;805;-67
2022/07/11 06:22:47;;;;;;;;;;;24.60;33.40;;;;;;1533511;76;692;-65
2022/07/11 06:24:49;;;;;;;;;;;24.70;33.50;;;;;;1525686;76;1930;-67
2022/07/11 06:26:52;;;;;;;;;;;24.70;33.50;;;;;;1531846;76;755;-67
2022/07/11 06:28:55;;;;;;;;;;;24.60;33.40;;;;;;1525341;76;743;-68
2022/07/11 06:30:57;;;;;;;;;;;24.70;33.40;;;;;;1540995;75;822;-67
2022/07/11 06:32:59;;;;;;;;;;;24.60;33.30;;;;;;1543343;76;764;-68
2022/07/11 06:35:00;;;;;;;;;;;24.60;33.30;;;;;;1531553;76;1184;-67
2022/07/11 06:37:02;;;;;;;;;;;24.70;33.40;;;;;;1544212;76;784;-67
2022/07/11 06:39:04;;;;;;;;;;;24.60;33.20;;;;;;1535467;76;762;-67
2022/07/11 06:41:06;;;;;;;;;;;24.70;33.40;;;;;;1541649;76;826;-67
2022/07/11 06:43:11;;;;;;;;;;;24.60;33.20;;;;;;1537212;76;726;-67
2022/07/11 06:45:13;;;;;;;;;;;24.60;33.10;;;;;;1535507;76;1930;-66
2022/07/11 06:47:15;;;;;;;;;;;24.60;33.10;;;;;;1533696;76;773;-68
2022/07/11 06:49:17;;;;;;;;;;;24.60;33.10;;;;;;1541867;76;737;-67
2022/07/11 06:51:19;;;;;;;;;;;24.60;33.00;;;;;;1551749;76;682;-67
2022/07/11 06:53:21;;;;;;;;;;;24.60;33.10;;;;;;1528837;76;725;-68
2022/07/11 06:55:22;;;;;;;;;;;24.60;33.10;;;;;;1523010;76;1142;-67
2022/07/11 06:57:24;;;;;;;;;;;24.60;33.10;;;;;;1520262;76;799;-67
2022/07/11 06:59:26;;;;;;;;;;;24.60;33.10;;;;;;1545071;76;797;-67
2022/07/11 07:01:28;;;;;;;;;;;24.60;33.00;;;;;;1527161;76;778;-67
2022/07/11 07:03:30;;;;;;;;;;;24.50;33.00;;;;;;1527408;76;745;-68
2022/07/11 07:05:32;;;;;;;;;;;24.60;33.00;;;;;;1535779;76;1930;-67
2022/07/11 07:07:34;;;;;;;;;;;24.50;32.90;;;;;;1526261;76;748;-67
2022/07/11 07:09:36;;;;;;;;;;;24.60;33.00;;;;;;1532471;76;816;-67
2022/07/11 07:11:37;;;;;;;;;;;24.60;33.00;;;;;;1535091;76;1536;-65
2022/07/11 07:13:39;;;;;;;;;;;24.60;33.00;;;;;;1523915;76;785;-66
2022/07/11 07:15:41;;;;;;;;;;;24.60;33.00;;;;;;1538257;71;2051;-65
2022/07/11 07:17:43;;;;;;;;;;;24.60;33.10;;;;;;1536573;76;669;-64
2022/07/11 07:19:45;;;;;;;;;;;24.60;33.10;;;;;;1538119;75;654;-65
2022/07/11 07:21:47;;;;;;;;;;;24.60;33.20;;;;;;1542730;76;714;-66
2022/07/11 07:23:49;;;;;;;;;;;24.60;33.20;;;;;;1537010;75;712;-66
2022/07/11 07:25:51;;;;;;;;;;;24.60;33.20;;;;;;1540969;74;1945;-64
2022/07/11 07:27:53;;;;;;;;;;;24.60;33.20;;;;;;1576813;74;700;-65
2022/07/11 07:29:55;;;;;;;;;;;24.60;33.20;;;;;;1564680;75;713;-64
2022/07/11 07:31:56;;;;;;;;;;;24.60;33.30;;;;;;1561114;74;719;-65
2022/07/11 07:33:58;;;;;;;;;;;24.60;33.30;;;;;;1561365;74;607;-66
2022/07/11 07:36:00;;;;;;;;;;;24.50;33.30;;;;;;1559636;75;1191;-65
2022/07/11 07:38:02;;;;;;;;;;;24.60;33.20;;;;;;1565563;74;697;-67
2022/07/11 07:40:05;;;;;;;;;;;24.60;33.10;;;;;;1563359;74;889;-63
2022/07/11 07:42:06;;;;;;;;;;;24.60;33.20;;;;;;1564812;74;747;-66
2022/07/11 07:44:08;;;;;;;;;;;24.60;33.20;;;;;;1572296;74;1923;-66
2022/07/11 07:46:11;;;;;;;;;;;24.60;33.20;;;;;;1564991;74;1136;-66
2022/07/11 07:48:12;;;;;;;;;;;24.60;33.20;;;;;;1568176;74;723;-64
2022/07/11 07:50:14;;;;;;;;;;;24.60;33.20;;;;;;1560556;74;732;-65
2022/07/11 07:52:17;;;;;;;;;;;24.60;33.20;;;;;;1564108;75;719;-65
2022/07/11 07:54:18;;;;;;;;;;;24.60;33.20;;;;;;1565306;75;738;-67
2022/07/11 07:56:20;;;;;;;;;;;24.50;33.20;;;;;;1553977;74;1149;-65
2022/07/11 07:58:22;;;;;;;;;;;24.60;33.10;;;;;;1562355;74;662;-65
2022/07/11 08:02:44;;;;;;;;;;;24.60;33.00;;;;;;1562660;74;1640;-67
2022/07/11 08:04:46;;;;;;;;;;;24.60;33.00;;;;;;1557742;74;1955;-64
2022/07/11 08:06:48;;;;;;;;;;;24.50;33.00;;;;;;1558877;74;1453;-65
2022/07/11 08:08:50;;;;;;;;;;;24.60;33.00;;;;;;1564314;74;697;-64
2022/07/11 08:10:52;;;;;;;;;;;24.50;33.10;;;;;;1563663;74;805;-64
2022/07/11 08:12:54;;;;;;;;;;;24.60;33.10;;;;;;1559615;74;743;-64
2022/07/11 08:14:55;;;;;;;;;;;24.60;33.00;;;;;;1565302;75;726;-66
2022/07/11 08:16:57;;;;;;;;;;;24.50;32.90;;;;;;1577129;74;1130;-67
2022/07/11 08:19:00;;;;;;;;;;;24.60;32.80;;;;;;1565299;75;791;-64
2022/07/11 08:21:02;;;;;;;;;;;24.50;32.80;;;;;;1565267;74;806;-67
2022/07/11 08:23:06;;;;;;;;;;;24.60;32.60;;;;;;1557815;74;691;-62
2022/07/11 08:25:08;;;;;;;;;;;24.50;32.70;;;;;;1565013;74;1910;-66
2022/07/11 08:27:10;;;;;;;;;;;24.60;32.60;;;;;;1564923;74;1073;-64
2022/07/11 08:29:12;;;;;;;;;;;24.50;32.60;;;;;;1566189;74;742;-65
2022/07/11 08:31:14;;;;;;;;;;;24.50;32.60;;;;;;1556322;74;718;-64
2022/07/11 08:33:16;;;;;;;;;;;24.50;32.60;;;;;;1565435;74;796;-64
2022/07/11 08:35:17;;;;;;;;;;;24.60;32.60;;;;;;1563511;74;1250;-64
2022/07/11 08:37:19;;;;;;;;;;;24.50;32.60;;;;;;1564831;74;686;-65
2022/07/11 08:39:21;;;;;;;;;;;24.50;32.60;;;;;;1562413;74;734;-67
2022/07/11 08:41:23;;;;;;;;;;;24.50;32.60;;;;;;1565330;75;578;-63
2022/07/11 08:43:31;;;;;;;;;;;24.50;32.60;;;;;;1563127;74;790;-64
2022/07/11 08:45:33;;;;;;;;;;;24.50;32.60;;;;;;1564940;74;1926;-64
2022/07/11 08:47:35;;;;;;;;;;;24.50;32.50;;;;;;1566932;74;755;-63
2022/07/11 08:49:36;;;;;;;;;;;24.60;32.60;;;;;;1538244;76;1200;-64
2022/07/11 08:51:38;;;;;;;;;;;24.50;32.50;;;;;;1562526;75;793;-65
2022/07/11 08:53:42;;;;;;;;;;;24.60;32.40;;;;;;1564721;74;740;-64
2022/07/11 08:55:44;;;;;;;;;;;24.50;32.40;;;;;;1559097;74;1151;-64
2022/07/11 08:57:45;;;;;;;;;;;24.50;32.40;;;;;;1566117;74;704;-64
2022/07/11 08:59:47;;;;;;;;;;;24.50;32.50;;;;;;1561625;74;697;-65
2022/07/11 09:01:50;;;;;;;;;;;24.50;32.50;;;;;;1572403;74;733;-65
2022/07/11 09:03:52;;;;;;;;;;;24.50;32.40;;;;;;1555077;74;1361;-65
2022/07/11 09:05:54;;;;;;;;;;;24.50;32.60;;;;;;1558667;74;1916;-68
2022/07/11 09:07:56;;;;;;;;;;;24.50;32.60;;;;;;1576014;74;723;-65
2022/07/11 09:09:58;;;;;;;;;;;24.50;32.60;;;;;;1564959;74;661;-65
2022/07/11 09:12:00;;;;;;;;;;;24.50;32.60;;;;;;1556818;74;651;-67
2022/07/11 09:14:02;;;;;;;;;;;24.40;32.40;;;;;;1554043;75;723;-69
2022/07/11 09:16:07;;;;;;;;;;;24.50;32.50;;;;;;1552324;76;1155;-66
2022/07/11 09:18:28;;;;;;;;;;;24.50;32.50;;;;;;1564924;74;763;-64
2022/07/11 09:25:19;;;;;;;;;;;24.50;32.50;;;;;;1553558;74;721;-65
2022/07/11 09:27:21;;;;;;;;;;;24.50;32.70;;;;;;1558671;75;1873;-65
2022/07/11 09:29:27;;;;;;;;;;;24.50;32.60;;;;;;1561118;75;785;-65
2022/07/11 09:31:29;;;;;;;;;;;24.50;32.70;;;;;;1564642;74;1597;-65
2022/07/11 09:33:31;;;;;;;;;;;24.50;32.70;;;;;;1548781;74;1885;-68
2022/07/11 09:35:35;;;;;;;;;;;24.50;32.70;;;;;;1561644;74;1177;-65
2022/07/11 09:37:43;;;;;;;;;;;24.50;32.70;;;;;;1562722;74;699;-64
2022/07/11 09:39:45;;;;;;;;;;;24.50;32.70;;;;;;1565410;74;848;-65
2022/07/11 09:41:47;;;;;;;;;;;24.50;32.70;;;;;;1565170;74;764;-66
2022/07/11 09:43:50;;;;;;;;;;;24.50;32.70;;;;;;1564161;74;780;-66
2022/07/11 09:45:52;;;;;;;;;;;24.40;32.60;;;;;;1560509;74;1915;-65
2022/07/11 09:47:57;;;;;;;;;;;24.50;32.70;;;;;;1562821;74;726;-66
2022/07/11 09:49:59;;;;;;;;;;;24.50;32.80;;;;;;1551764;75;716;-66
2022/07/11 09:52:03;;;;;;;;;;;24.50;32.80;;;;;;1561293;75;804;-68
2022/07/11 09:54:05;;;;;;;;;;;24.50;32.80;;;;;;1559124;74;1117;-65
2022/07/11 09:56:07;;;;;;;;;;;24.50;32.90;;;;;;1565502;74;1138;-65
2022/07/11 09:58:10;;;;;;;;;;;24.50;32.90;;;;;;1563656;74;714;-65
2022/07/11 10:00:12;;;;;;;;;;;24.50;32.90;;;;;;1563702;74;1457;-63
2022/07/11 10:02:14;;;;;;;;;;;24.50;33.00;;;;;;1561395;74;720;-64
2022/07/11 10:04:16;;;;;;;;;;;24.50;33.00;;;;;;1564837;74;746;-65
2022/07/11 10:06:18;;;;;;;;;;;24.50;33.10;;;;;;1564482;75;1938;-65
2022/07/11 10:08:20;;;;;;;;;;;24.50;33.10;;;;;;1558503;74;736;-65
2022/07/11 10:10:22;;;;;;;;;;;24.50;33.10;;;;;;1561956;74;780;-66
2022/07/11 10:12:24;;;;;;;;;;;24.50;33.10;;;;;;1564643;74;779;-67
2022/07/11 10:14:25;;;;;;;;;;;24.50;33.10;;;;;;1561822;74;685;-66
2022/07/11 10:16:35;;;;;;;;;;;24.50;33.10;;;;;;1565263;74;1216;-66
2022/07/11 10:18:41;;;;;;;;;;;24.50;33.10;;;;;;1565432;75;797;-66
2022/07/11 10:20:44;;;;;;;;;;;24.50;33.20;;;;;;1563416;74;712;-63
2022/07/11 10:22:54;;;;;;;;;;;24.50;33.20;;;;;;1557368;74;1490;-66
2022/07/11 10:25:06;;;;;;;;;;;24.50;33.20;;;;;;1565170;74;1811;-65
2022/07/11 10:27:10;;;;;;;;;;;24.50;33.20;;;;;;1565181;75;1793;-66
2022/07/11 10:29:13;;;;;;;;;;;24.50;33.30;;;;;;1542831;76;1172;-64
2022/07/11 10:31:22;;;;;;;;;;;24.50;33.20;;;;;;1561371;74;726;-66
2022/07/11 10:33:24;;;;;;;;;;;24.50;33.20;;;;;;1564169;74;683;-65
2022/07/11 10:35:26;;;;;;;;;;;24.50;33.20;;;;;;1562652;74;1150;-65
2022/07/11 10:37:28;;;;;;;;;;;24.50;33.20;;;;;;1539510;76;1182;-65
2022/07/11 10:39:30;;;;;;;;;;;24.50;33.20;;;;;;1535233;76;663;-66
2022/07/11 10:41:31;;;;;;;;;;;24.50;33.20;;;;;;1565201;75;710;-66
2022/07/11 10:43:39;;;;;;;;;;;24.50;33.20;;;;;;1564947;76;779;-67
2022/07/11 10:45:59;;;;;;;;;;;24.50;33.10;;;;;;1568976;74;1912;-68
2022/07/11 10:48:09;;;;;;;;;;;24.60;33.20;;;;;;1563622;75;747;-63
2022/07/11 10:50:21;;;;;;;;;;;24.50;33.10;;;;;;1567786;74;947;-66
2022/07/11 10:52:23;;;;;;;;;;;24.50;33.20;;;;;;1556237;74;1081;-65
2022/07/11 10:54:46;;;;;;;;;;;24.50;33.20;;;;;;1558685;75;710;-66
2022/07/11 10:57:05;;;;;;;;;;;24.50;33.20;;;;;;1562865;74;1602;-67
2022/07/11 10:59:11;;;;;;;;;;;24.50;33.30;;;;;;1569853;74;755;-66
2022/07/11 11:01:14;;;;;;;;;;;24.50;33.30;;;;;;1564382;75;765;-66
2022/07/11 11:03:16;;;;;;;;;;;24.50;33.30;;;;;;1573918;74;763;-66
2022/07/11 11:05:19;;;;;;;;;;;24.50;33.30;;;;;;1564415;74;1944;-63
2022/07/11 11:07:40;;;;;;;;;;;24.50;33.30;;;;;;1562634;74;1788;-65
2022/07/11 11:09:42;;;;;;;;;;;24.50;33.40;;;;;;1568768;74;725;-63
2022/07/11 11:11:46;;;;;;;;;;;24.50;33.40;;;;;;1580064;74;776;-66
2022/07/11 11:13:49;;;;;;;;;;;24.50;33.40;;;;;;1571836;74;691;-66
2022/07/11 11:15:52;;;;;;;;;;;24.50;33.50;;;;;;1551663;74;1646;-64
2022/07/11 11:17:54;;;;;;;;;;;24.50;33.50;;;;;;1555579;74;1172;-64
2022/07/11 11:19:56;;;;;;;;;;;24.60;33.50;;;;;;1566155;74;744;-64
2022/07/11 11:22:02;;;;;;;;;;;24.60;33.50;;;;;;1557473;74;830;-64
2022/07/11 11:24:05;;;;;;;;;;;24.50;33.60;;;;;;1561901;74;805;-64
2022/07/11 11:26:11;;;;;;;;;;;24.50;33.50;;;;;;1567571;74;1915;-66
2022/07/11 11:28:15;;;;;;;;;;;24.50;33.50;;;;;;1555525;74;788;-65
2022/07/11 11:30:17;;;;;;;;;;;24.50;33.60;;;;;;1551389;74;1732;-62
2022/07/11 11:32:19;;;;;;;;;;;24.50;33.60;;;;;;1564023;74;775;-64
2022/07/11 11:34:21;;;;;;;;;;;24.50;33.60;;;;;;1564189;75;769;-65
2022/07/11 11:36:23;;;;;;;;;;;24.50;33.60;;;;;;1562978;74;1201;-67
2022/07/11 11:38:25;;;;;;;;;;;24.50;33.60;;;;;;1547535;74;725;-64
2022/07/11 11:40:27;;;;;;;;;;;24.60;33.70;;;;;;1550930;75;717;-65
2022/07/11 11:42:30;;;;;;;;;;;24.60;33.70;;;;;;1559945;74;731;-68
2022/07/11 11:44:33;;;;;;;;;;;24.50;33.70;;;;;;1553291;75;718;-66
2022/07/11 11:46:35;;;;;;;;;;;24.50;33.70;;;;;;1559412;75;1962;-65
2022/07/11 11:48:37;;;;;;;;;;;24.60;33.80;;;;;;1554857;74;687;-65
2022/07/11 11:50:39;;;;;;;;;;;24.50;33.80;;;;;;1562442;74;815;-65
2022/07/11 11:52:41;;;;;;;;;;;24.60;33.80;;;;;;1564631;74;1488;-65
2022/07/11 11:54:43;;;;;;;;;;;24.50;33.80;;;;;;1563490;74;683;-67
2022/07/11 11:56:45;;;;;;;;;;;24.50;33.80;;;;;;1558017;74;1133;-64
2022/07/11 11:58:46;;;;;;;;;;;24.50;33.80;;;;;;1561871;74;801;-64
2022/07/11 12:00:57;;;;;;;;;;;24.50;33.90;;;;;;1563628;75;769;-63
2022/07/11 12:02:59;;;;;;;;;;;24.70;34.00;;;;;;1559341;74;791;-65
2022/07/11 12:05:03;;;;;;;;;;;24.60;33.90;;;;;;1567730;74;794;-64
2022/07/11 12:07:05;;;;;;;;;;;24.50;33.90;;;;;;1568602;74;1954;-64
2022/07/11 12:09:15;;;;;;;;;;;24.60;34.00;;;;;;1572840;74;759;-65
2022/07/11 12:11:17;;;;;;;;;;;24.60;34.00;;;;;;1568827;74;669;-64
2022/07/11 12:13:19;;;;;;;;;;;24.60;34.00;;;;;;1564675;74;682;-66
2022/07/11 12:15:26;;;;;;;;;;;24.60;34.00;;;;;;1567802;74;1243;-65
2022/07/11 12:17:32;;;;;;;;;;;24.60;34.10;;;;;;1567491;74;731;-64
2022/07/11 12:19:36;;;;;;;;;;;24.50;34.10;;;;;;1567229;74;1234;-65